Ste Anne De Bell 1

CWVQ · Quebec, 加拿大

罗盘
风向 的 风向 的 风向 到 风向 090°
风: 3 kt, 1 beaufort

添加一条跑道以查看侧风和逆风信息。

添置 跑道
0 1.000 2.000 3.000 4.000 5.000
BKN 3.000 ft
METAR CYMX 290600Z 09003KT 030V130 25SM BKN030 M02/M06 A3014 RMK SC7 SLP213

METAR Ste Anne De Bell 1 - CWVQ

Ste Anne De Bell 1是,加拿大中的未知。 该领域的国际民航组织标志是CWVQ.

这份报告是针对2022年11月29日 01:00, 当地时间在Montreal International (Mirabel) Airport进行的。

机场观察

风向为090°,速度为3 kt。 风向在030°和130°之间变化。

可见度为25 mi。

有碎云在3.000 ft的高度。 破损或更高的上限为3.000 ft。

温度为-2 °C,阵风为-6 °C。 露点为-6 °C,相对湿度为74%。 海平面上的气压为30,14 inHg (QNH)。

白天

今天,太阳从07:12升起,在16:15降落。 这适用于Ste Anne De Bell 1,世界夏令时可能有所不同。 当地时间与世界标准时间之间的时差为-5 小时。 当前,没有夏令时有效。

公司介绍

我们没有关于这个机场的公司信息。

体会

到Vliegles.nl去找飞行课程,跳伞和其他飞行体验。 浏览页面,了解Ste Anne De Bell 1附近所有可用的活动。 你也可以使用搜索功能来寻找你所在地附近的特定飞行课程、跳伞或其他飞行体验。

乌云

3.000 ft BKN 碎云

温度 & 天气

温度 -2 °C
露点 -6 °C
相对湿度 74%
风寒 -6 °C
Kp-index 3 (0-9)

评论

SLP213海平面压力为30,16 inHg (30,16 inHg)
SC7

白天

日出
07:14 (5:20)
中午
11:44
日落
16:14

小工具

你想在你的网站上有一个关于Ste Anne De Bell 1的当前航空天气(METAR)的小部件吗?

显示HTML代码

我们和第三方通过cookies跟踪您在我们网站上的互联网行为。如果你继续,我们认为你同意我们的饼干政策